sensor_id;sensor_type;location;lat;lon;timestamp;P1;durP1;ratioP1;P2;durP2;ratioP2
23317;SDS011;11831;55.918;37.746;2023-03-14T00:02:12;8.93;;;4.25;;
23317;SDS011;11831;55.918;37.746;2023-03-14T00:04:38;8.57;;;4.18;;
23317;SDS011;11831;55.918;37.746;2023-03-14T00:07:05;7.60;;;3.65;;
23317;SDS011;11831;55.918;37.746;2023-03-14T00:09:31;8.32;;;3.78;;
23317;SDS011;11831;55.918;37.746;2023-03-14T00:11:57;6.12;;;3.83;;
23317;SDS011;11831;55.918;37.746;2023-03-14T00:14:24;7.25;;;3.53;;
23317;SDS011;11831;55.918;37.746;2023-03-14T00:16:50;8.32;;;3.90;;
23317;SDS011;11831;55.918;37.746;2023-03-14T00:19:17;6.87;;;3.95;;
23317;SDS011;11831;55.918;37.746;2023-03-14T00:21:43;6.07;;;3.72;;
23317;SDS011;11831;55.918;37.746;2023-03-14T00:24:09;5.68;;;3.85;;
23317;SDS011;11831;55.918;37.746;2023-03-14T00:26:36;6.30;;;3.80;;
23317;SDS011;11831;55.918;37.746;2023-03-14T00:29:02;6.53;;;3.35;;
23317;SDS011;11831;55.918;37.746;2023-03-14T00:31:29;7.05;;;3.10;;
23317;SDS011;11831;55.918;37.746;2023-03-14T00:33:56;6.12;;;3.55;;
23317;SDS011;11831;55.918;37.746;2023-03-14T00:36:23;5.10;;;3.50;;
23317;SDS011;11831;55.918;37.746;2023-03-14T00:38:50;5.95;;;3.03;;
23317;SDS011;11831;55.918;37.746;2023-03-14T00:41:18;5.68;;;3.22;;
23317;SDS011;11831;55.918;37.746;2023-03-14T00:43:48;7.50;;;2.75;;
23317;SDS011;11831;55.918;37.746;2023-03-14T00:46:15;8.00;;;3.65;;
23317;SDS011;11831;55.918;37.746;2023-03-14T00:48:43;6.30;;;3.35;;
23317;SDS011;11831;55.918;37.746;2023-03-14T00:51:11;7.03;;;3.50;;
23317;SDS011;11831;55.918;37.746;2023-03-14T00:53:42;7.00;;;3.00;;
23317;SDS011;11831;55.918;37.746;2023-03-14T00:56:10;4.43;;;2.65;;
23317;SDS011;11831;55.918;37.746;2023-03-14T00:58:38;5.75;;;3.12;;
23317;SDS011;11831;55.918;37.746;2023-03-14T01:01:05;8.05;;;3.05;;
23317;SDS011;11831;55.918;37.746;2023-03-14T01:03:33;5.57;;;2.85;;
23317;SDS011;11831;55.918;37.746;2023-03-14T01:06:09;7.75;;;3.12;;
23317;SDS011;11831;55.918;37.746;2023-03-14T01:08:37;8.27;;;2.97;;
23317;SDS011;11831;55.918;37.746;2023-03-14T01:11:05;6.97;;;3.45;;
23317;SDS011;11831;55.918;37.746;2023-03-14T01:13:36;6.85;;;2.80;;
23317;SDS011;11831;55.918;37.746;2023-03-14T01:16:03;6.22;;;2.72;;
23317;SDS011;11831;55.918;37.746;2023-03-14T01:18:32;7.20;;;3.25;;
23317;SDS011;11831;55.918;37.746;2023-03-14T01:21:01;6.50;;;3.03;;
23317;SDS011;11831;55.918;37.746;2023-03-14T01:23:29;5.53;;;2.35;;
23317;SDS011;11831;55.918;37.746;2023-03-14T01:25:55;3.92;;;3.10;;
23317;SDS011;11831;55.918;37.746;2023-03-14T01:28:22;5.43;;;2.50;;
23317;SDS011;11831;55.918;37.746;2023-03-14T01:30:48;4.85;;;3.05;;
23317;SDS011;11831;55.918;37.746;2023-03-14T01:33:14;5.82;;;2.55;;
23317;SDS011;11831;55.918;37.746;2023-03-14T01:35:42;8.07;;;3.25;;
23317;SDS011;11831;55.918;37.746;2023-03-14T01:38:08;5.90;;;3.20;;
23317;SDS011;11831;55.918;37.746;2023-03-14T01:40:41;6.32;;;3.00;;
23317;SDS011;11831;55.918;37.746;2023-03-14T01:43:15;6.25;;;2.67;;
23317;SDS011;11831;55.918;37.746;2023-03-14T01:48:19;4.15;;;2.85;;
23317;SDS011;11831;55.918;37.746;2023-03-14T01:50:46;5.95;;;2.85;;
23317;SDS011;11831;55.918;37.746;2023-03-14T01:53:13;8.18;;;3.25;;
23317;SDS011;11831;55.918;37.746;2023-03-14T01:55:40;11.07;;;3.30;;
23317;SDS011;11831;55.918;37.746;2023-03-14T01:58:07;5.85;;;3.30;;
23317;SDS011;11831;55.918;37.746;2023-03-14T02:00:34;5.70;;;2.83;;
23317;SDS011;11831;55.918;37.746;2023-03-14T02:03:09;4.10;;;2.78;;
23317;SDS011;11831;55.918;37.746;2023-03-14T02:05:41;9.43;;;3.20;;
23317;SDS011;11831;55.918;37.746;2023-03-14T02:08:12;5.78;;;3.15;;
23317;SDS011;11831;55.918;37.746;2023-03-14T02:10:41;5.35;;;2.78;;
23317;SDS011;11831;55.918;37.746;2023-03-14T02:13:11;6.10;;;3.42;;
23317;SDS011;11831;55.918;37.746;2023-03-14T02:15:38;4.68;;;3.08;;
23317;SDS011;11831;55.918;37.746;2023-03-14T02:18:05;6.28;;;3.47;;
23317;SDS011;11831;55.918;37.746;2023-03-14T02:23:09;10.35;;;3.80;;
23317;SDS011;11831;55.918;37.746;2023-03-14T02:28:27;6.75;;;4.00;;
23317;SDS011;11831;55.918;37.746;2023-03-14T02:30:54;7.80;;;4.12;;
23317;SDS011;11831;55.918;37.746;2023-03-14T02:33:20;8.13;;;3.90;;
23317;SDS011;11831;55.918;37.746;2023-03-14T02:38:47;5.87;;;3.78;;
23317;SDS011;11831;55.918;37.746;2023-03-14T02:41:42;9.63;;;4.18;;
23317;SDS011;11831;55.918;37.746;2023-03-14T02:44:11;6.97;;;3.85;;
23317;SDS011;11831;55.918;37.746;2023-03-14T02:46:37;6.37;;;4.35;;
23317;SDS011;11831;55.918;37.746;2023-03-14T02:49:04;7.53;;;4.10;;
23317;SDS011;11831;55.918;37.746;2023-03-14T02:51:34;5.35;;;3.92;;
23317;SDS011;11831;55.918;37.746;2023-03-14T02:54:01;5.60;;;4.00;;
23317;SDS011;11831;55.918;37.746;2023-03-14T02:56:28;8.15;;;4.55;;
23317;SDS011;11831;55.918;37.746;2023-03-14T02:58:54;9.52;;;5.12;;
23317;SDS011;11831;55.918;37.746;2023-03-14T03:01:24;10.05;;;4.93;;
23317;SDS011;11831;55.918;37.746;2023-03-14T03:03:50;9.48;;;5.00;;
23317;SDS011;11831;55.918;37.746;2023-03-14T03:06:17;7.28;;;4.70;;
23317;SDS011;11831;55.918;37.746;2023-03-14T03:08:43;7.12;;;4.62;;
23317;SDS011;11831;55.918;37.746;2023-03-14T03:11:10;8.63;;;5.28;;
23317;SDS011;11831;55.918;37.746;2023-03-14T03:13:36;8.48;;;5.37;;
23317;SDS011;11831;55.918;37.746;2023-03-14T03:16:03;8.10;;;4.35;;
23317;SDS011;11831;55.918;37.746;2023-03-14T03:18:30;11.82;;;5.03;;
23317;SDS011;11831;55.918;37.746;2023-03-14T03:20:59;6.03;;;4.40;;
23317;SDS011;11831;55.918;37.746;2023-03-14T03:23:27;8.52;;;4.32;;
23317;SDS011;11831;55.918;37.746;2023-03-14T03:25:54;6.25;;;4.75;;
23317;SDS011;11831;55.918;37.746;2023-03-14T03:28:21;7.57;;;4.70;;
23317;SDS011;11831;55.918;37.746;2023-03-14T03:30:47;5.50;;;3.65;;
23317;SDS011;11831;55.918;37.746;2023-03-14T03:33:14;7.68;;;5.28;;
23317;SDS011;11831;55.918;37.746;2023-03-14T03:35:42;9.43;;;5.90;;
23317;SDS011;11831;55.918;37.746;2023-03-14T03:38:12;7.83;;;5.67;;
23317;SDS011;11831;55.918;37.746;2023-03-14T03:40:40;7.62;;;5.00;;
23317;SDS011;11831;55.918;37.746;2023-03-14T03:43:06;6.32;;;4.97;;
23317;SDS011;11831;55.918;37.746;2023-03-14T03:45:34;8.30;;;4.55;;
23317;SDS011;11831;55.918;37.746;2023-03-14T03:48:01;6.85;;;4.97;;
23317;SDS011;11831;55.918;37.746;2023-03-14T03:50:27;6.80;;;4.97;;
23317;SDS011;11831;55.918;37.746;2023-03-14T03:52:53;6.65;;;5.07;;
23317;SDS011;11831;55.918;37.746;2023-03-14T03:55:20;6.57;;;4.70;;
23317;SDS011;11831;55.918;37.746;2023-03-14T03:57:46;6.55;;;4.30;;
23317;SDS011;11831;55.918;37.746;2023-03-14T04:00:13;5.10;;;4.60;;
23317;SDS011;11831;55.918;37.746;2023-03-14T04:02:40;6.82;;;5.07;;
23317;SDS011;11831;55.918;37.746;2023-03-14T04:05:07;5.80;;;4.53;;
23317;SDS011;11831;55.918;37.746;2023-03-14T04:07:33;4.75;;;3.85;;
23317;SDS011;11831;55.918;37.746;2023-03-14T04:10:00;6.57;;;5.00;;
23317;SDS011;11831;55.918;37.746;2023-03-14T04:12:27;6.32;;;4.68;;
23317;SDS011;11831;55.918;37.746;2023-03-14T04:14:53;7.95;;;4.70;;
23317;SDS011;11831;55.918;37.746;2023-03-14T04:17:20;5.82;;;4.55;;
23317;SDS011;11831;55.918;37.746;2023-03-14T04:19:46;4.30;;;3.58;;
23317;SDS011;11831;55.918;37.746;2023-03-14T04:22:15;8.52;;;5.20;;
23317;SDS011;11831;55.918;37.746;2023-03-14T04:24:41;6.68;;;4.93;;
23317;SDS011;11831;55.918;37.746;2023-03-14T04:27:08;7.32;;;4.32;;
23317;SDS011;11831;55.918;37.746;2023-03-14T04:29:34;7.18;;;5.05;;
23317;SDS011;11831;55.918;37.746;2023-03-14T04:32:00;5.80;;;3.58;;
23317;SDS011;11831;55.918;37.746;2023-03-14T04:34:27;7.90;;;4.70;;
23317;SDS011;11831;55.918;37.746;2023-03-14T04:36:53;7.78;;;5.22;;
23317;SDS011;11831;55.918;37.746;2023-03-14T04:39:20;7.15;;;5.32;;
23317;SDS011;11831;55.918;37.746;2023-03-14T04:41:47;8.23;;;5.62;;
23317;SDS011;11831;55.918;37.746;2023-03-14T04:44:13;8.77;;;4.80;;
23317;SDS011;11831;55.918;37.746;2023-03-14T04:46:39;6.62;;;5.20;;
23317;SDS011;11831;55.918;37.746;2023-03-14T04:49:05;7.47;;;5.22;;
23317;SDS011;11831;55.918;37.746;2023-03-14T04:51:32;7.87;;;5.25;;
23317;SDS011;11831;55.918;37.746;2023-03-14T04:53:58;8.52;;;5.10;;
23317;SDS011;11831;55.918;37.746;2023-03-14T04:56:25;8.90;;;5.35;;
23317;SDS011;11831;55.918;37.746;2023-03-14T04:58:53;10.00;;;5.55;;
23317;SDS011;11831;55.918;37.746;2023-03-14T05:01:19;10.07;;;6.32;;
23317;SDS011;11831;55.918;37.746;2023-03-14T05:03:46;8.98;;;5.32;;
23317;SDS011;11831;55.918;37.746;2023-03-14T05:06:13;10.05;;;6.22;;
23317;SDS011;11831;55.918;37.746;2023-03-14T05:08:39;9.60;;;5.50;;
23317;SDS011;11831;55.918;37.746;2023-03-14T05:11:06;7.43;;;5.28;;
23317;SDS011;11831;55.918;37.746;2023-03-14T05:13:33;8.85;;;5.72;;
23317;SDS011;11831;55.918;37.746;2023-03-14T05:16:04;11.85;;;5.75;;
23317;SDS011;11831;55.918;37.746;2023-03-14T05:18:36;9.38;;;5.78;;
23317;SDS011;11831;55.918;37.746;2023-03-14T05:21:03;10.25;;;6.25;;
23317;SDS011;11831;55.918;37.746;2023-03-14T05:23:32;10.45;;;6.15;;
23317;SDS011;11831;55.918;37.746;2023-03-14T05:25:59;8.90;;;5.70;;
23317;SDS011;11831;55.918;37.746;2023-03-14T05:28:26;12.40;;;6.82;;
23317;SDS011;11831;55.918;37.746;2023-03-14T05:30:52;11.80;;;6.80;;
23317;SDS011;11831;55.918;37.746;2023-03-14T05:33:19;4.62;;;3.97;;
23317;SDS011;11831;55.918;37.746;2023-03-14T05:35:45;7.12;;;5.10;;
23317;SDS011;11831;55.918;37.746;2023-03-14T05:38:12;7.95;;;4.57;;
23317;SDS011;11831;55.918;37.746;2023-03-14T05:40:38;6.12;;;4.03;;
23317;SDS011;11831;55.918;37.746;2023-03-14T05:43:05;11.32;;;5.82;;
23317;SDS011;11831;55.918;37.746;2023-03-14T05:45:34;7.37;;;5.75;;
23317;SDS011;11831;55.918;37.746;2023-03-14T05:48:01;10.77;;;6.45;;
23317;SDS011;11831;55.918;37.746;2023-03-14T05:50:28;8.20;;;5.65;;
23317;SDS011;11831;55.918;37.746;2023-03-14T05:52:55;8.50;;;5.90;;
23317;SDS011;11831;55.918;37.746;2023-03-14T05:55:22;10.73;;;6.10;;
23317;SDS011;11831;55.918;37.746;2023-03-14T05:57:48;9.73;;;5.87;;
23317;SDS011;11831;55.918;37.746;2023-03-14T06:00:15;10.18;;;6.12;;
23317;SDS011;11831;55.918;37.746;2023-03-14T06:02:43;10.35;;;5.75;;
23317;SDS011;11831;55.918;37.746;2023-03-14T06:05:10;10.63;;;5.60;;
23317;SDS011;11831;55.918;37.746;2023-03-14T06:07:37;12.10;;;5.68;;
23317;SDS011;11831;55.918;37.746;2023-03-14T06:10:03;7.95;;;4.78;;
23317;SDS011;11831;55.918;37.746;2023-03-14T06:12:31;6.45;;;3.95;;
23317;SDS011;11831;55.918;37.746;2023-03-14T06:14:57;6.75;;;4.47;;
23317;SDS011;11831;55.918;37.746;2023-03-14T06:17:23;7.35;;;4.55;;
23317;SDS011;11831;55.918;37.746;2023-03-14T06:19:50;7.82;;;4.40;;
23317;SDS011;11831;55.918;37.746;2023-03-14T06:22:16;9.82;;;4.95;;
23317;SDS011;11831;55.918;37.746;2023-03-14T06:24:43;5.85;;;3.53;;
23317;SDS011;11831;55.918;37.746;2023-03-14T06:27:09;8.90;;;4.18;;
23317;SDS011;11831;55.918;37.746;2023-03-14T06:29:36;7.30;;;4.35;;
23317;SDS011;11831;55.918;37.746;2023-03-14T06:32:02;6.15;;;3.50;;
23317;SDS011;11831;55.918;37.746;2023-03-14T06:34:28;6.28;;;3.40;;
23317;SDS011;11831;55.918;37.746;2023-03-14T06:36:55;6.00;;;3.62;;
23317;SDS011;11831;55.918;37.746;2023-03-14T06:39:21;8.90;;;4.10;;
23317;SDS011;11831;55.918;37.746;2023-03-14T06:41:47;7.25;;;3.17;;
23317;SDS011;11831;55.918;37.746;2023-03-14T06:44:14;8.50;;;4.10;;
23317;SDS011;11831;55.918;37.746;2023-03-14T06:46:40;7.28;;;3.97;;
23317;SDS011;11831;55.918;37.746;2023-03-14T06:49:06;8.68;;;4.45;;
23317;SDS011;11831;55.918;37.746;2023-03-14T06:51:33;6.62;;;3.28;;
23317;SDS011;11831;55.918;37.746;2023-03-14T06:54:01;7.43;;;4.18;;
23317;SDS011;11831;55.918;37.746;2023-03-14T06:56:27;7.00;;;3.45;;
23317;SDS011;11831;55.918;37.746;2023-03-14T06:58:53;5.00;;;3.40;;
23317;SDS011;11831;55.918;37.746;2023-03-14T07:01:21;7.30;;;3.33;;
23317;SDS011;11831;55.918;37.746;2023-03-14T07:03:50;11.12;;;4.20;;
23317;SDS011;11831;55.918;37.746;2023-03-14T07:06:16;5.55;;;3.20;;
23317;SDS011;11831;55.918;37.746;2023-03-14T07:08:43;6.00;;;2.80;;
23317;SDS011;11831;55.918;37.746;2023-03-14T07:11:09;5.12;;;3.22;;
23317;SDS011;11831;55.918;37.746;2023-03-14T07:13:37;4.50;;;2.70;;
23317;SDS011;11831;55.918;37.746;2023-03-14T07:16:04;6.70;;;3.58;;
23317;SDS011;11831;55.918;37.746;2023-03-14T07:18:31;6.18;;;3.70;;
23317;SDS011;11831;55.918;37.746;2023-03-14T07:20:58;6.80;;;3.45;;
23317;SDS011;11831;55.918;37.746;2023-03-14T07:23:24;6.72;;;3.65;;
23317;SDS011;11831;55.918;37.746;2023-03-14T07:25:51;6.45;;;3.20;;
23317;SDS011;11831;55.918;37.746;2023-03-14T07:28:19;6.20;;;2.70;;
23317;SDS011;11831;55.918;37.746;2023-03-14T07:30:46;7.07;;;4.53;;
23317;SDS011;11831;55.918;37.746;2023-03-14T07:33:13;4.85;;;2.75;;
23317;SDS011;11831;55.918;37.746;2023-03-14T07:35:39;6.78;;;3.42;;
23317;SDS011;11831;55.918;37.746;2023-03-14T07:38:06;5.35;;;3.15;;
23317;SDS011;11831;55.918;37.746;2023-03-14T07:40:32;9.00;;;3.37;;
23317;SDS011;11831;55.918;37.746;2023-03-14T07:42:59;5.45;;;2.80;;
23317;SDS011;11831;55.918;37.746;2023-03-14T07:45:25;6.72;;;3.20;;
23317;SDS011;11831;55.918;37.746;2023-03-14T07:47:52;6.22;;;3.58;;
23317;SDS011;11831;55.918;37.746;2023-03-14T07:50:18;10.05;;;3.65;;
23317;SDS011;11831;55.918;37.746;2023-03-14T07:52:45;3.53;;;2.15;;
23317;SDS011;11831;55.918;37.746;2023-03-14T07:55:11;7.03;;;3.80;;
23317;SDS011;11831;55.918;37.746;2023-03-14T07:57:39;5.60;;;3.70;;
23317;SDS011;11831;55.918;37.746;2023-03-14T08:00:06;5.93;;;3.10;;
23317;SDS011;11831;55.918;37.746;2023-03-14T08:02:40;5.47;;;3.17;;
23317;SDS011;11831;55.918;37.746;2023-03-14T08:05:07;9.18;;;3.12;;
23317;SDS011;11831;55.918;37.746;2023-03-14T08:07:34;6.43;;;3.47;;
23317;SDS011;11831;55.918;37.746;2023-03-14T08:10:00;5.93;;;3.35;;
23317;SDS011;11831;55.918;37.746;2023-03-14T08:12:26;5.15;;;3.37;;
23317;SDS011;11831;55.918;37.746;2023-03-14T08:14:53;8.27;;;3.37;;
23317;SDS011;11831;55.918;37.746;2023-03-14T08:17:19;5.37;;;3.28;;
23317;SDS011;11831;55.918;37.746;2023-03-14T08:19:45;5.95;;;3.30;;
23317;SDS011;11831;55.918;37.746;2023-03-14T08:22:12;8.13;;;3.50;;
23317;SDS011;11831;55.918;37.746;2023-03-14T08:24:38;5.12;;;2.62;;
23317;SDS011;11831;55.918;37.746;2023-03-14T08:27:07;6.55;;;3.25;;
23317;SDS011;11831;55.918;37.746;2023-03-14T08:29:33;7.45;;;2.97;;
23317;SDS011;11831;55.918;37.746;2023-03-14T08:31:59;6.60;;;3.53;;
23317;SDS011;11831;55.918;37.746;2023-03-14T08:34:26;6.70;;;3.12;;
23317;SDS011;11831;55.918;37.746;2023-03-14T08:36:52;7.57;;;3.47;;
23317;SDS011;11831;55.918;37.746;2023-03-14T08:39:18;5.87;;;3.10;;
23317;SDS011;11831;55.918;37.746;2023-03-14T08:41:45;3.75;;;2.42;;
23317;SDS011;11831;55.918;37.746;2023-03-14T08:44:11;5.45;;;3.05;;
23317;SDS011;11831;55.918;37.746;2023-03-14T08:46:37;5.07;;;2.85;;
23317;SDS011;11831;55.918;37.746;2023-03-14T08:49:04;8.00;;;3.60;;
23317;SDS011;11831;55.918;37.746;2023-03-14T08:51:30;10.00;;;3.30;;
23317;SDS011;11831;55.918;37.746;2023-03-14T08:53:57;5.35;;;3.08;;
23317;SDS011;11831;55.918;37.746;2023-03-14T08:56:23;8.43;;;3.62;;
23317;SDS011;11831;55.918;37.746;2023-03-14T08:58:49;5.55;;;3.58;;
23317;SDS011;11831;55.918;37.746;2023-03-14T09:01:15;4.55;;;3.40;;
23317;SDS011;11831;55.918;37.746;2023-03-14T09:03:42;8.38;;;3.85;;
23317;SDS011;11831;55.918;37.746;2023-03-14T09:06:09;4.37;;;2.87;;
23317;SDS011;11831;55.918;37.746;2023-03-14T09:08:36;8.27;;;4.18;;
23317;SDS011;11831;55.918;37.746;2023-03-14T09:11:02;6.50;;;3.97;;
23317;SDS011;11831;55.918;37.746;2023-03-14T09:13:32;6.57;;;3.85;;
23317;SDS011;11831;55.918;37.746;2023-03-14T09:15:58;7.03;;;3.83;;
23317;SDS011;11831;55.918;37.746;2023-03-14T09:18:25;6.78;;;3.42;;
23317;SDS011;11831;55.918;37.746;2023-03-14T09:20:51;5.28;;;3.40;;
23317;SDS011;11831;55.918;37.746;2023-03-14T09:23:18;9.95;;;4.20;;
23317;SDS011;11831;55.918;37.746;2023-03-14T09:25:44;5.12;;;3.45;;
23317;SDS011;11831;55.918;37.746;2023-03-14T09:28:10;6.43;;;3.35;;
23317;SDS011;11831;55.918;37.746;2023-03-14T09:30:37;4.93;;;3.17;;
23317;SDS011;11831;55.918;37.746;2023-03-14T09:33:03;5.75;;;3.35;;
23317;SDS011;11831;55.918;37.746;2023-03-14T09:35:30;5.82;;;3.60;;
23317;SDS011;11831;55.918;37.746;2023-03-14T09:37:56;7.55;;;4.20;;
23317;SDS011;11831;55.918;37.746;2023-03-14T09:40:23;5.25;;;2.65;;
23317;SDS011;11831;55.918;37.746;2023-03-14T09:42:52;7.82;;;3.35;;
23317;SDS011;11831;55.918;37.746;2023-03-14T09:48:03;6.45;;;3.83;;
23317;SDS011;11831;55.918;37.746;2023-03-14T09:50:37;7.47;;;3.33;;
23317;SDS011;11831;55.918;37.746;2023-03-14T09:53:14;8.35;;;3.53;;
23317;SDS011;11831;55.918;37.746;2023-03-14T09:55:45;5.97;;;3.20;;
23317;SDS011;11831;55.918;37.746;2023-03-14T09:58:16;5.23;;;3.30;;
23317;SDS011;11831;55.918;37.746;2023-03-14T10:00:49;6.65;;;3.80;;
23317;SDS011;11831;55.918;37.746;2023-03-14T10:05:48;5.62;;;3.50;;
23317;SDS011;11831;55.918;37.746;2023-03-14T10:08:15;8.07;;;3.55;;
23317;SDS011;11831;55.918;37.746;2023-03-14T10:10:42;6.05;;;4.03;;
23317;SDS011;11831;55.918;37.746;2023-03-14T10:13:24;7.00;;;3.55;;
23317;SDS011;11831;55.918;37.746;2023-03-14T10:15:54;4.47;;;2.95;;
23317;SDS011;11831;55.918;37.746;2023-03-14T10:21:01;4.15;;;2.83;;
23317;SDS011;11831;55.918;37.746;2023-03-14T10:23:31;10.13;;;4.05;;
23317;SDS011;11831;55.918;37.746;2023-03-14T10:26:13;5.97;;;3.97;;
23317;SDS011;11831;55.918;37.746;2023-03-14T10:28:46;8.50;;;3.75;;
23317;SDS011;11831;55.918;37.746;2023-03-14T10:31:14;5.20;;;3.08;;
23317;SDS011;11831;55.918;37.746;2023-03-14T10:33:41;6.20;;;3.72;;
23317;SDS011;11831;55.918;37.746;2023-03-14T10:38:44;5.68;;;3.35;;
23317;SDS011;11831;55.918;37.746;2023-03-14T10:44:07;5.18;;;3.62;;
23317;SDS011;11831;55.918;37.746;2023-03-14T10:46:38;5.97;;;3.70;;
23317;SDS011;11831;55.918;37.746;2023-03-14T10:49:43;8.68;;;4.30;;
23317;SDS011;11831;55.918;37.746;2023-03-14T10:52:13;6.60;;;4.28;;
23317;SDS011;11831;55.918;37.746;2023-03-14T10:54:48;8.77;;;4.60;;
23317;SDS011;11831;55.918;37.746;2023-03-14T10:57:19;8.00;;;4.28;;
23317;SDS011;11831;55.918;37.746;2023-03-14T10:59:46;6.78;;;4.50;;
23317;SDS011;11831;55.918;37.746;2023-03-14T11:05:11;6.53;;;3.20;;
23317;SDS011;11831;55.918;37.746;2023-03-14T11:08:09;9.80;;;3.70;;
23317;SDS011;11831;55.918;37.746;2023-03-14T11:10:41;5.68;;;3.80;;
23317;SDS011;11831;55.918;37.746;2023-03-14T11:24:19;5.43;;;2.72;;
23317;SDS011;11831;55.918;37.746;2023-03-14T11:27:04;6.83;;;3.70;;
23317;SDS011;11831;55.918;37.746;2023-03-14T11:35:17;6.85;;;2.53;;
23317;SDS011;11831;55.918;37.746;2023-03-14T11:38:27;7.93;;;4.05;;
23317;SDS011;11831;55.918;37.746;2023-03-14T11:41:12;6.22;;;2.35;;
23317;SDS011;11831;55.918;37.746;2023-03-14T11:43:42;8.27;;;3.22;;
23317;SDS011;11831;55.918;37.746;2023-03-14T11:46:18;5.78;;;2.75;;
23317;SDS011;11831;55.918;37.746;2023-03-14T11:48:57;6.82;;;3.03;;
23317;SDS011;11831;55.918;37.746;2023-03-14T11:51:32;7.18;;;3.50;;
23317;SDS011;11831;55.918;37.746;2023-03-14T11:57:10;6.07;;;3.65;;
23317;SDS011;11831;55.918;37.746;2023-03-14T12:02:18;5.62;;;3.62;;
23317;SDS011;11831;55.918;37.746;2023-03-14T12:10:23;6.85;;;4.28;;
23317;SDS011;11831;55.918;37.746;2023-03-14T12:12:49;7.62;;;3.53;;
23317;SDS011;11831;55.918;37.746;2023-03-14T12:15:20;8.43;;;4.10;;
23317;SDS011;11831;55.918;37.746;2023-03-14T12:17:54;8.00;;;3.50;;
23317;SDS011;11831;55.918;37.746;2023-03-14T12:22:55;5.03;;;4.00;;
23317;SDS011;11831;55.918;37.746;2023-03-14T12:25:27;7.05;;;3.40;;
23317;SDS011;11831;55.918;37.746;2023-03-14T12:33:10;3.90;;;3.22;;
23317;SDS011;11831;55.918;37.746;2023-03-14T12:35:38;5.28;;;3.12;;
23317;SDS011;11831;55.918;37.746;2023-03-14T12:41:00;7.22;;;3.85;;
23317;SDS011;11831;55.918;37.746;2023-03-14T12:43:48;6.15;;;3.22;;
23317;SDS011;11831;55.918;37.746;2023-03-14T12:46:19;6.95;;;4.07;;
23317;SDS011;11831;55.918;37.746;2023-03-14T12:51:44;6.00;;;3.70;;
23317;SDS011;11831;55.918;37.746;2023-03-14T13:00:22;14.52;;;3.95;;
23317;SDS011;11831;55.918;37.746;2023-03-14T13:02:59;4.60;;;2.80;;
23317;SDS011;11831;55.918;37.746;2023-03-14T13:05:51;4.60;;;3.22;;
23317;SDS011;11831;55.918;37.746;2023-03-14T13:08:47;5.40;;;3.03;;
23317;SDS011;11831;55.918;37.746;2023-03-14T13:11:18;7.70;;;3.40;;
23317;SDS011;11831;55.918;37.746;2023-03-14T13:13:52;5.18;;;3.08;;
23317;SDS011;11831;55.918;37.746;2023-03-14T13:16:23;7.07;;;3.45;;
23317;SDS011;11831;55.918;37.746;2023-03-14T13:18:59;5.40;;;3.58;;
23317;SDS011;11831;55.918;37.746;2023-03-14T13:21:33;4.62;;;3.20;;
23317;SDS011;11831;55.918;37.746;2023-03-14T13:24:03;4.90;;;2.58;;
23317;SDS011;11831;55.918;37.746;2023-03-14T13:26:32;7.20;;;3.28;;
23317;SDS011;11831;55.918;37.746;2023-03-14T13:31:48;7.53;;;3.60;;
23317;SDS011;11831;55.918;37.746;2023-03-14T13:34:16;6.70;;;3.62;;
23317;SDS011;11831;55.918;37.746;2023-03-14T13:36:44;5.03;;;3.12;;
23317;SDS011;11831;55.918;37.746;2023-03-14T13:39:12;5.05;;;3.40;;
23317;SDS011;11831;55.918;37.746;2023-03-14T13:41:40;5.05;;;3.80;;
23317;SDS011;11831;55.918;37.746;2023-03-14T13:44:08;6.45;;;3.87;;
23317;SDS011;11831;55.918;37.746;2023-03-14T13:46:41;5.22;;;3.17;;
23317;SDS011;11831;55.918;37.746;2023-03-14T13:49:12;6.82;;;3.78;;
23317;SDS011;11831;55.918;37.746;2023-03-14T13:51:54;5.72;;;3.37;;
23317;SDS011;11831;55.918;37.746;2023-03-14T13:54:21;6.53;;;4.00;;
23317;SDS011;11831;55.918;37.746;2023-03-14T13:56:49;6.78;;;3.53;;
23317;SDS011;11831;55.918;37.746;2023-03-14T13:59:32;8.00;;;3.67;;
23317;SDS011;11831;55.918;37.746;2023-03-14T14:04:32;9.55;;;3.47;;
23317;SDS011;11831;55.918;37.746;2023-03-14T14:07:06;5.65;;;3.62;;
23317;SDS011;11831;55.918;37.746;2023-03-14T14:09:39;4.90;;;3.35;;
23317;SDS011;11831;55.918;37.746;2023-03-14T14:12:13;4.55;;;3.28;;
23317;SDS011;11831;55.918;37.746;2023-03-14T14:15:04;4.15;;;2.75;;
23317;SDS011;11831;55.918;37.746;2023-03-14T14:17:52;6.07;;;3.22;;
23317;SDS011;11831;55.918;37.746;2023-03-14T14:20:35;4.72;;;3.12;;
23317;SDS011;11831;55.918;37.746;2023-03-14T14:23:17;4.72;;;3.00;;
23317;SDS011;11831;55.918;37.746;2023-03-14T14:25:51;5.18;;;3.10;;
23317;SDS011;11831;55.918;37.746;2023-03-14T14:28:29;4.70;;;3.08;;
23317;SDS011;11831;55.918;37.746;2023-03-14T14:34:00;5.90;;;3.03;;
23317;SDS011;11831;55.918;37.746;2023-03-14T14:39:01;7.43;;;3.30;;
23317;SDS011;11831;55.918;37.746;2023-03-14T14:41:35;4.57;;;3.08;;
23317;SDS011;11831;55.918;37.746;2023-03-14T14:44:07;6.40;;;3.30;;
23317;SDS011;11831;55.918;37.746;2023-03-14T14:46:37;5.68;;;3.28;;
23317;SDS011;11831;55.918;37.746;2023-03-14T14:49:09;5.40;;;3.75;;
23317;SDS011;11831;55.918;37.746;2023-03-14T14:51:43;7.03;;;2.80;;
23317;SDS011;11831;55.918;37.746;2023-03-14T14:56:47;5.30;;;3.50;;
23317;SDS011;11831;55.918;37.746;2023-03-14T14:59:20;6.87;;;3.45;;
23317;SDS011;11831;55.918;37.746;2023-03-14T15:01:56;5.22;;;3.55;;
23317;SDS011;11831;55.918;37.746;2023-03-14T15:04:31;5.25;;;3.35;;
23317;SDS011;11831;55.918;37.746;2023-03-14T15:06:57;5.12;;;3.47;;
23317;SDS011;11831;55.918;37.746;2023-03-14T15:09:24;5.93;;;3.80;;
23317;SDS011;11831;55.918;37.746;2023-03-14T15:11:51;5.60;;;3.20;;
23317;SDS011;11831;55.918;37.746;2023-03-14T15:14:17;3.90;;;2.85;;
23317;SDS011;11831;55.918;37.746;2023-03-14T15:16:43;5.25;;;3.42;;
23317;SDS011;11831;55.918;37.746;2023-03-14T15:19:19;7.43;;;3.70;;
23317;SDS011;11831;55.918;37.746;2023-03-14T15:21:49;4.15;;;3.22;;
23317;SDS011;11831;55.918;37.746;2023-03-14T15:24:16;4.97;;;2.50;;
23317;SDS011;11831;55.918;37.746;2023-03-14T15:26:42;7.68;;;3.83;;
23317;SDS011;11831;55.918;37.746;2023-03-14T15:29:10;4.30;;;2.85;;
23317;SDS011;11831;55.918;37.746;2023-03-14T15:31:38;4.75;;;3.28;;
23317;SDS011;11831;55.918;37.746;2023-03-14T15:34:06;5.07;;;3.45;;
23317;SDS011;11831;55.918;37.746;2023-03-14T15:36:33;6.37;;;3.05;;
23317;SDS011;11831;55.918;37.746;2023-03-14T15:39:02;4.68;;;3.30;;
23317;SDS011;11831;55.918;37.746;2023-03-14T15:41:30;5.05;;;3.25;;
23317;SDS011;11831;55.918;37.746;2023-03-14T15:43:57;3.55;;;2.42;;
23317;SDS011;11831;55.918;37.746;2023-03-14T15:46:23;7.18;;;3.70;;
23317;SDS011;11831;55.918;37.746;2023-03-14T15:48:50;4.65;;;2.97;;
23317;SDS011;11831;55.918;37.746;2023-03-14T15:51:17;6.32;;;3.67;;
23317;SDS011;11831;55.918;37.746;2023-03-14T15:53:45;4.53;;;3.28;;
23317;SDS011;11831;55.918;37.746;2023-03-14T15:56:13;4.95;;;3.67;;
23317;SDS011;11831;55.918;37.746;2023-03-14T15:58:41;7.32;;;3.92;;
23317;SDS011;11831;55.918;37.746;2023-03-14T16:01:13;6.78;;;3.65;;
23317;SDS011;11831;55.918;37.746;2023-03-14T16:03:42;4.68;;;2.97;;
23317;SDS011;11831;55.918;37.746;2023-03-14T16:06:10;5.65;;;3.15;;
23317;SDS011;11831;55.918;37.746;2023-03-14T16:08:36;10.80;;;7.47;;
23317;SDS011;11831;55.918;37.746;2023-03-14T16:11:03;4.95;;;2.80;;
23317;SDS011;11831;55.918;37.746;2023-03-14T16:13:30;5.05;;;3.70;;